Time;durP1;ratioP1;P1;durP2;ratioP2;P2;SDS_P1;SDS_P2;PMS_P1;PMS_P2;Temp;Humidity;BMP_temperature;BMP_pressure;BME280_temperature;BME280_humidity;BME280_pressure;Samples;Min_cycle;Max_cycle;Signal;HPM_P1;HPM_P2
2021/12/03 00:00:04;;;;;;;1.90;1.00;;;;;;;2.96;nan;99522.13;5094483;28;20405;-71
2021/12/03 00:02:29;;;;;;;8.80;1.67;;;;;;;2.76;nan;99500.13;5094376;28;20634;-70
2021/12/03 00:04:54;;;;;;;3.70;1.30;;;;;;;3.02;nan;99519.28;5093948;28;20457;-70
2021/12/03 00:07:19;;;;;;;4.83;1.30;;;;;;;2.87;nan;99504.94;5094190;28;20692;-70
2021/12/03 00:09:45;;;;;;;3.27;1.30;;;;;;;2.96;nan;99528.25;5077224;28;20184;-71
2021/12/03 00:12:10;;;;;;;10.87;1.70;;;;;;;2.78;nan;99519.38;5093909;28;20173;-71
2021/12/03 00:14:36;;;;;;;4.23;1.80;;;;;;;2.90;nan;99522.41;5095248;28;20170;-70
2021/12/03 00:17:03;;;;;;;8.43;1.63;;;;;;;3.08;nan;99517.22;5093237;28;20198;-70
2021/12/03 00:19:28;;;;;;;5.57;1.00;;;;;;;2.82;nan;99510.41;5093625;28;20181;-71
2021/12/03 00:21:53;;;;;;;3.10;1.00;;;;;;;3.17;nan;99512.47;5094004;28;20412;-73
2021/12/03 00:24:19;;;;;;;8.73;1.53;;;;;;;3.09;nan;99515.44;5076610;28;20637;-70
2021/12/03 00:26:44;;;;;;;5.53;1.17;;;;;;;3.04;nan;99517.41;5093617;28;20182;-70
2021/12/03 00:29:09;;;;;;;3.33;1.50;;;;;;;2.81;nan;99511.34;5094054;28;20605;-71
2021/12/03 00:31:35;;;;;;;5.60;1.67;;;;;;;2.75;nan;99514.22;5093526;28;20570;-70
2021/12/03 00:34:00;;;;;;;6.53;1.27;;;;;;;2.99;nan;99498.31;5093924;28;20212;-70
2021/12/03 00:36:27;;;;;;;4.57;1.27;;;;;;;3.18;nan;99520.31;5093975;28;20173;-70
2021/12/03 00:38:56;;;;;;;4.90;1.60;;;;;;;3.45;nan;99524.38;5097505;28;20276;-70
2021/12/03 00:41:22;;;;;;;6.70;1.50;;;;;;;2.95;nan;99509.88;5079733;28;20417;-70
2021/12/03 00:43:51;;;;;;;6.50;1.90;;;;;;;3.16;nan;99530.06;5095852;28;20466;-71
2021/12/03 00:46:18;;;;;;;10.23;2.00;;;;;;;3.20;nan;99521.09;5095864;28;20186;-70
2021/12/03 00:48:48;;;;;;;7.63;1.50;;;;;;;3.09;nan;99525.97;5076361;28;20801;-70
2021/12/03 00:51:16;;;;;;;5.37;1.77;;;;;;;3.00;nan;99535.16;5093090;28;20464;-70
2021/12/03 00:53:42;;;;;;;5.40;1.53;;;;;;;2.90;nan;99512.72;5094681;28;20634;-70
2021/12/03 00:56:09;;;;;;;4.23;1.40;;;;;;;2.99;nan;99528.16;5093090;28;20421;-70
2021/12/03 00:58:34;;;;;;;3.97;1.40;;;;;;;3.03;nan;99526.25;5093080;28;20202;-70
2021/12/03 01:01:00;;;;;;;6.93;1.30;;;;;;;3.04;nan;99501.59;5092890;28;20411;-72
2021/12/03 01:03:25;;;;;;;5.87;1.40;;;;;;;3.17;nan;99523.00;5093127;28;20224;-70
2021/12/03 01:05:51;;;;;;;4.17;1.27;;;;;;;3.29;nan;99510.13;5092885;28;20210;-70
2021/12/03 01:08:16;;;;;;;2.93;1.37;;;;;;;3.03;nan;99499.88;5075848;28;20195;-70
2021/12/03 01:10:42;;;;;;;4.10;1.77;;;;;;;3.03;nan;99513.06;5092964;28;20196;-70
2021/12/03 01:13:07;;;;;;;2.90;1.50;;;;;;;3.04;nan;99504.25;5092944;28;20192;-70
2021/12/03 01:15:35;;;;;;;6.27;1.70;;;;;;;3.37;nan;99546.75;5092741;28;20235;-71
2021/12/03 01:18:02;;;;;;;3.33;1.43;;;;;;;3.15;nan;99528.34;5092706;28;20189;-71
2021/12/03 01:20:28;;;;;;;6.33;1.77;;;;;;;3.05;nan;99527.91;5075889;28;20403;-71
2021/12/03 01:22:54;;;;;;;1.87;1.43;;;;;;;2.83;nan;99537.63;5094302;28;20463;-71
2021/12/03 01:25:21;;;;;;;5.00;1.70;;;;;;;3.02;nan;99554.41;5075658;28;20200;-71
2021/12/03 01:27:47;;;;;;;8.20;2.10;;;;;;;3.09;nan;99542.66;5091883;28;20190;-71
2021/12/03 01:30:16;;;;;;;4.10;1.60;;;;;;;3.02;nan;99525.41;5092811;28;20440;-71
2021/12/03 01:32:42;;;;;;;6.37;1.40;;;;;;;2.90;nan;99522.41;5092942;28;20414;-70
2021/12/03 01:35:08;;;;;;;4.53;1.60;;;;;;;3.10;nan;99540.88;5092594;28;20889;-70
2021/12/03 01:37:33;;;;;;;4.17;1.70;;;;;;;3.12;nan;99529.34;5092438;28;20208;-70
2021/12/03 01:39:58;;;;;;;6.53;1.60;;;;;;;2.83;nan;99530.56;5092728;28;20419;-71
2021/12/03 01:42:24;;;;;;;4.77;1.57;;;;;;;2.81;nan;99513.97;5093540;28;20170;-72
2021/12/03 01:44:49;;;;;;;3.40;1.80;;;;;;;2.94;nan;99545.06;5075414;28;20200;-71
2021/12/03 01:47:14;;;;;;;3.60;1.80;;;;;;;2.97;nan;99522.06;5092261;28;20548;-70
2021/12/03 01:49:40;;;;;;;3.57;1.60;;;;;;;2.65;nan;99534.00;5092640;28;20176;-70
2021/12/03 01:52:05;;;;;;;3.67;1.90;;;;;;;2.86;nan;99536.63;5075423;28;20218;-69
2021/12/03 01:54:30;;;;;;;5.90;1.80;;;;;;;2.88;nan;99538.28;5092188;28;20206;-71
2021/12/03 01:56:56;;;;;;;4.30;1.97;;;;;;;2.99;nan;99543.97;5092331;28;20199;-69
2021/12/03 01:59:21;;;;;;;6.53;2.10;;;;;;;2.75;nan;99539.72;5075524;28;20504;-70
2021/12/03 02:01:47;;;;;;;4.73;2.13;;;;;;;2.67;nan;99518.97;5092113;28;20237;-70
2021/12/03 02:04:12;;;;;;;5.53;2.13;;;;;;;3.02;nan;99521.91;5075376;28;20212;-70
2021/12/03 02:06:38;;;;;;;8.40;2.50;;;;;;;3.05;nan;99532.31;5092221;28;20173;-70
2021/12/03 02:09:04;;;;;;;6.83;2.20;;;;;;;3.04;nan;99544.63;5091995;28;20176;-70
2021/12/03 02:11:30;;;;;;;8.53;2.20;;;;;;;3.25;nan;99531.44;5092385;28;20205;-69
2021/12/03 02:13:55;;;;;;;6.90;2.37;;;;;;;2.98;nan;99494.81;5091893;28;20468;-70
2021/12/03 02:16:21;;;;;;;5.60;2.17;;;;;;;2.97;nan;99513.31;5096474;28;20170;-69
2021/12/03 02:18:46;;;;;;;6.43;2.33;;;;;;;3.28;nan;99526.03;5087931;28;20200;-69
2021/12/03 02:21:12;;;;;;;6.03;2.37;;;;;;;3.42;nan;99521.03;5099916;28;20176;-70
2021/12/03 02:23:38;;;;;;;8.10;2.67;;;;;;;3.17;nan;99513.31;5094043;28;20173;-69
2021/12/03 02:26:04;;;;;;;8.53;3.07;;;;;;;3.22;nan;99535.06;5092975;28;20198;-69
2021/12/03 02:28:33;;;;;;;4.17;2.80;;;;;;;3.37;nan;99529.13;5092610;28;20433;-69
2021/12/03 02:30:59;;;;;;;7.23;2.80;;;;;;;3.19;nan;99518.53;5092825;28;20170;-70
2021/12/03 02:33:25;;;;;;;6.73;2.67;;;;;;;2.99;nan;99540.50;5093983;28;20403;-69
2021/12/03 02:35:51;;;;;;;6.83;2.93;;;;;;;3.16;nan;99551.16;5075342;28;20222;-70
2021/12/03 02:38:21;;;;;;;7.50;2.60;;;;;;;2.99;nan;99541.34;5092097;28;20430;-70
2021/12/03 02:40:47;;;;;;;5.33;2.70;;;;;;;3.03;nan;99549.97;5101006;28;20819;-70
2021/12/03 02:43:14;;;;;;;5.23;3.30;;;;;;;3.00;nan;99539.56;5090398;28;20413;-70
2021/12/03 02:45:39;;;;;;;4.53;3.20;;;;;;;2.94;nan;99531.88;5106795;28;20828;-69
2021/12/03 02:48:05;;;;;;;4.47;2.90;;;;;;;3.30;nan;99559.31;5107648;28;20426;-70
2021/12/03 02:50:30;;;;;;;7.87;3.70;;;;;;;3.04;nan;99543.78;5105954;28;20197;-69
2021/12/03 02:52:56;;;;;;;12.37;3.60;;;;;;;3.06;nan;99519.06;5095646;28;20166;-69
2021/12/03 02:55:22;;;;;;;7.13;3.63;;;;;;;3.12;nan;99533.75;5096749;28;20171;-69
2021/12/03 02:57:47;;;;;;;3.97;3.00;;;;;;;2.96;nan;99506.31;5078703;28;20546;-71
2021/12/03 03:00:15;;;;;;;8.47;3.63;;;;;;;3.34;nan;99541.56;5095833;28;20223;-70
2021/12/03 03:02:41;;;;;;;9.27;3.93;;;;;;;2.99;nan;99524.69;5096428;28;20206;-71
2021/12/03 03:05:08;;;;;;;7.63;3.97;;;;;;;3.09;nan;99524.22;5095650;28;20225;-70
2021/12/03 03:07:33;;;;;;;4.60;3.47;;;;;;;3.21;nan;99543.91;5095277;28;20294;-71
2021/12/03 03:09:59;;;;;;;6.80;4.20;;;;;;;3.01;nan;99538.66;5078384;28;20887;-70
2021/12/03 03:12:24;;;;;;;8.10;4.23;;;;;;;3.09;nan;99549.72;5096395;28;20170;-71
2021/12/03 03:14:58;;;;;;;13.13;4.10;;;;;;;3.20;nan;99555.38;5078360;28;20176;-69
2021/12/03 03:17:25;;;;;;;14.27;5.47;;;;;;;3.20;nan;99551.88;5095261;28;20210;-69
2021/12/03 03:19:51;;;;;;;6.63;4.13;;;;;;;3.09;nan;99561.13;5095213;28;20413;-71
2021/12/03 03:22:18;;;;;;;8.07;4.93;;;;;;;3.28;nan;99558.53;5078302;28;20413;-71
2021/12/03 03:24:44;;;;;;;5.70;3.87;;;;;;;2.76;nan;99565.16;5095113;28;20544;-71
2021/12/03 03:27:09;;;;;;;6.60;4.40;;;;;;;3.12;nan;99554.84;5095091;28;20521;-71
2021/12/03 03:29:35;;;;;;;7.97;4.43;;;;;;;2.99;nan;99553.66;5094976;28;20628;-70
2021/12/03 03:32:01;;;;;;;7.93;4.83;;;;;;;2.98;nan;99546.69;5095130;28;20166;-69
2021/12/03 03:34:26;;;;;;;8.77;4.80;;;;;;;2.88;nan;99563.78;5095160;28;20170;-70
2021/12/03 03:36:52;;;;;;;6.47;4.57;;;;;;;3.16;nan;99569.63;5096738;28;20426;-70
2021/12/03 03:39:17;;;;;;;10.13;5.60;;;;;;;3.35;nan;99561.78;5096518;28;20170;-70
2021/12/03 03:41:43;;;;;;;8.63;5.00;;;;;;;3.11;nan;99582.13;5096195;28;20199;-70
2021/12/03 03:44:09;;;;;;;8.57;4.93;;;;;;;3.26;nan;99578.84;5095252;28;20244;-70
2021/12/03 03:46:36;;;;;;;7.93;5.27;;;;;;;3.31;nan;99561.03;5096374;28;20170;-70
2021/12/03 03:49:01;;;;;;;9.70;5.43;;;;;;;3.07;nan;99588.47;5094868;28;20422;-70
2021/12/03 03:51:26;;;;;;;7.43;5.30;;;;;;;3.07;nan;99576.13;5094796;28;20412;-70
2021/12/03 03:53:52;;;;;;;11.90;5.30;;;;;;;3.28;nan;99571.72;5095784;28;20173;-68
2021/12/03 03:56:17;;;;;;;11.23;5.67;;;;;;;3.20;nan;99551.88;5077770;28;20177;-70
2021/12/03 03:58:42;;;;;;;10.53;5.30;;;;;;;3.24;nan;99571.91;5094197;28;20216;-69
2021/12/03 04:01:10;;;;;;;9.50;5.57;;;;;;;3.22;nan;99577.25;5077525;28;20207;-70
2021/12/03 04:03:35;;;;;;;12.53;6.57;;;;;;;3.09;nan;99582.19;5095625;28;20257;-71
2021/12/03 04:06:01;;;;;;;9.93;5.30;;;;;;;2.97;nan;99584.47;5094515;28;20536;-71
2021/12/03 04:08:29;;;;;;;9.80;6.23;;;;;;;3.39;nan;99572.13;5094128;28;20670;-70
2021/12/03 04:10:56;;;;;;;15.90;5.97;;;;;;;3.26;nan;99584.13;5098795;28;20273;-69
2021/12/03 04:13:22;;;;;;;10.13;5.93;;;;;;;3.15;nan;99575.81;5099251;28;20407;-70
2021/12/03 04:15:48;;;;;;;12.80;6.17;;;;;;;3.19;nan;99585.31;5099561;28;20433;-71
2021/12/03 04:18:13;;;;;;;11.93;5.20;;;;;;;3.06;nan;99584.13;5095367;28;20186;-71
2021/12/03 04:20:38;;;;;;;8.47;5.83;;;;;;;3.27;nan;99590.25;5094514;28;20428;-70
2021/12/03 04:23:04;;;;;;;7.87;4.90;;;;;;;3.09;nan;99576.94;5094176;28;20173;-71
2021/12/03 04:25:29;;;;;;;9.80;5.73;;;;;;;3.38;nan;99591.53;5095071;28;20598;-70
2021/12/03 04:27:54;;;;;;;12.70;5.83;;;;;;;3.36;nan;99580.19;5093866;28;20261;-70
2021/12/03 04:30:29;;;;;;;8.90;5.97;;;;;;;3.36;nan;99581.97;5094668;28;20174;-70
2021/12/03 04:32:56;;;;;;;9.33;5.73;;;;;;;3.64;nan;99597.41;5094306;28;20524;-70
2021/12/03 04:35:22;;;;;;;9.83;5.37;;;;;;;3.33;nan;99608.44;5093826;28;20644;-72
2021/12/03 04:37:47;;;;;;;9.70;5.23;;;;;;;3.17;nan;99578.38;5094064;28;20431;-70
2021/12/03 04:40:14;;;;;;;8.30;5.67;;;;;;;3.26;nan;99604.34;5094082;28;20801;-70
2021/12/03 04:42:40;;;;;;;11.03;5.60;;;;;;;3.36;nan;99582.81;5093707;28;20624;-70
2021/12/03 04:45:08;;;;;;;11.13;5.67;;;;;;;3.78;nan;99575.72;5093766;28;20448;-70
2021/12/03 04:47:33;;;;;;;9.83;5.20;;;;;;;3.53;nan;99560.97;5093877;28;20338;-69
2021/12/03 04:49:59;;;;;;;10.07;6.10;;;;;;;3.70;nan;99581.31;5094005;28;20505;-69
2021/12/03 04:52:25;;;;;;;9.20;5.53;;;;;;;3.53;nan;99558.31;5093864;28;20618;-70
2021/12/03 04:54:50;;;;;;;11.20;5.40;;;;;;;3.45;nan;99566.59;5076664;28;20636;-69
2021/12/03 04:57:16;;;;;;;11.23;5.20;;;;;;;3.46;nan;99562.16;5093864;28;20251;-70
2021/12/03 04:59:41;;;;;;;8.53;5.23;;;;;;;3.64;nan;99581.59;5095031;28;20162;-70
2021/12/03 05:02:06;;;;;;;9.00;5.33;;;;;;;3.71;nan;99573.31;5093455;28;20697;-70
2021/12/03 05:04:37;;;;;;;9.80;5.87;;;;;;;3.88;nan;99571.72;5093365;28;20189;-70
2021/12/03 05:09:36;;;;;;;8.87;4.93;;;;;;;3.56;nan;99576.66;5093801;28;20402;-70
2021/12/03 05:12:02;;;;;;;11.13;5.20;;;;;;;3.53;nan;99599.69;5093939;28;20414;-71
2021/12/03 05:14:28;;;;;;;9.37;5.80;;;;;;;3.49;nan;99606.00;5076813;28;20201;-71
2021/12/03 05:16:54;;;;;;;12.83;5.87;;;;;;;3.50;nan;99602.47;5095363;28;20503;-70
2021/12/03 05:19:19;;;;;;;11.53;5.90;;;;;;;3.56;nan;99592.47;5093546;28;20170;-70
2021/12/03 05:21:45;;;;;;;10.60;6.37;;;;;;;3.67;nan;99627.16;5093361;28;20472;-71
2021/12/03 05:24:11;;;;;;;10.53;6.03;;;;;;;3.58;nan;99610.88;5093561;28;20653;-70
2021/12/03 05:26:38;;;;;;;12.17;5.57;;;;;;;3.61;nan;99605.47;5093213;28;20195;-70
2021/12/03 05:29:04;;;;;;;12.83;6.60;;;;;;;3.96;nan;99639.09;5092877;28;20643;-70
2021/12/03 05:31:30;;;;;;;10.23;5.87;;;;;;;3.71;nan;99620.81;5076006;28;20409;-70
2021/12/03 05:33:55;;;;;;;9.27;6.20;;;;;;;3.53;nan;99645.38;5093264;28;20498;-70
2021/12/03 05:36:21;;;;;;;11.13;5.77;;;;;;;3.80;nan;99619.59;5093976;28;20201;-70
2021/12/03 05:38:46;;;;;;;10.30;5.40;;;;;;;3.75;nan;99624.22;5094083;28;20227;-70
2021/12/03 05:41:11;;;;;;;9.93;6.13;;;;;;;3.82;nan;99619.50;5092847;28;20181;-71
2021/12/03 05:43:37;;;;;;;11.03;5.37;;;;;;;3.66;nan;99614.03;5092739;28;20209;-69
2021/12/03 05:46:02;;;;;;;7.90;5.23;;;;;;;3.87;nan;99618.38;5093506;28;20293;-70
2021/12/03 05:48:27;;;;;;;14.47;5.80;;;;;;;4.16;nan;99632.06;5093991;28;20244;-69
2021/12/03 05:50:53;;;;;;;8.80;5.57;;;;;;;3.70;nan;99623.53;5093375;28;20620;-68
2021/12/03 05:53:18;;;;;;;9.47;5.23;;;;;;;3.87;nan;99634.22;5093576;28;20195;-70
2021/12/03 05:55:43;;;;;;;9.37;5.27;;;;;;;3.79;nan;99627.56;5094566;28;20189;-70
2021/12/03 05:58:08;;;;;;;12.67;5.40;;;;;;;3.81;nan;99639.78;5120596;22;20358;-67
2021/12/03 06:00:38;;;;;;;13.23;5.40;;;;;;;4.01;nan;99658.22;5093205;28;20212;-67
2021/12/03 06:03:04;;;;;;;8.87;5.30;;;;;;;3.87;nan;99659.75;5091884;28;20184;-67
2021/12/03 06:05:29;;;;;;;10.30;5.00;;;;;;;3.70;nan;99626.16;5091945;28;20512;-67
2021/12/03 06:07:55;;;;;;;9.73;5.07;;;;;;;3.70;nan;99631.44;5091916;28;20270;-68
2021/12/03 06:10:20;;;;;;;10.87;4.97;;;;;;;3.77;nan;99669.88;5093137;28;20307;-67
2021/12/03 06:12:46;;;;;;;10.00;5.33;;;;;;;4.10;nan;99650.81;5091425;28;20181;-69
2021/12/03 06:15:12;;;;;;;8.50;5.40;;;;;;;4.11;nan;99652.53;5094123;28;20187;-67
2021/12/03 06:17:38;;;;;;;9.27;5.13;;;;;;;3.70;nan;99652.56;5096025;28;20190;-68
2021/12/03 06:20:04;;;;;;;8.43;5.03;;;;;;;3.74;nan;99643.63;5097406;28;20197;-68
2021/12/03 06:22:29;;;;;;;12.83;6.30;;;;;;;3.90;nan;99676.31;5096081;28;20203;-68
2021/12/03 06:24:56;;;;;;;7.80;5.00;;;;;;;3.89;nan;99655.28;5095678;28;20198;-68
2021/12/03 06:27:22;;;;;;;9.97;5.57;;;;;;;3.94;nan;99650.63;5095721;28;20201;-68
2021/12/03 06:29:47;;;;;;;13.13;5.73;;;;;;;3.75;nan;99658.53;5096887;28;20169;-68
2021/12/03 06:32:13;;;;;;;9.40;5.23;;;;;;;3.73;nan;99645.41;5095694;28;20232;-69
2021/12/03 06:34:38;;;;;;;12.47;5.90;;;;;;;3.82;nan;99648.56;5095507;28;20174;-68
2021/12/03 06:37:04;;;;;;;10.00;5.23;;;;;;;3.69;nan;99664.03;5095442;28;20177;-67
2021/12/03 06:39:29;;;;;;;9.80;5.43;;;;;;;4.12;nan;99667.47;5096970;28;20178;-68
2021/12/03 06:41:55;;;;;;;13.57;6.37;;;;;;;3.94;nan;99650.63;5096620;28;20188;-67
2021/12/03 06:44:20;;;;;;;11.37;5.57;;;;;;;3.70;nan;99660.47;5096524;28;20170;-67
2021/12/03 06:46:45;;;;;;;9.53;4.77;;;;;;;3.62;nan;99662.59;5096601;28;20178;-68
2021/12/03 06:49:11;;;;;;;11.67;5.53;;;;;;;3.68;nan;99664.97;5095347;28;20205;-67
2021/12/03 06:51:41;;;;;;;14.50;6.03;;;;;;;3.62;nan;99665.22;5095482;28;20636;-67
2021/12/03 06:54:08;;;;;;;12.03;5.83;;;;;;;3.71;nan;99656.91;5096697;28;20158;-68
2021/12/03 06:56:51;;;;;;;10.40;5.70;;;;;;;3.67;nan;99674.66;5095304;28;20170;-67
2021/12/03 06:59:18;;;;;;;7.70;5.03;;;;;;;3.74;nan;99684.06;5095157;28;20225;-67
2021/12/03 07:01:43;;;;;;;10.43;5.60;;;;;;;3.91;nan;99677.19;5096466;28;20410;-68
2021/12/03 07:04:09;;;;;;;11.37;5.77;;;;;;;4.06;nan;99687.03;5095171;28;20174;-68
2021/12/03 07:06:35;;;;;;;8.40;4.70;;;;;;;3.81;nan;99681.16;5077896;28;20246;-68
2021/12/03 07:09:00;;;;;;;9.57;4.70;;;;;;;3.64;nan;99684.50;5094862;28;20203;-68
2021/12/03 07:11:25;;;;;;;9.60;5.37;;;;;;;3.72;nan;99661.31;5096459;28;20663;-67
2021/12/03 07:13:50;;;;;;;10.77;5.17;;;;;;;3.88;nan;99672.88;5095138;28;20245;-67
2021/12/03 07:16:16;;;;;;;9.27;5.57;;;;;;;3.69;nan;99672.81;5094864;28;20174;-68
2021/12/03 07:18:43;;;;;;;12.13;5.30;;;;;;;3.85;nan;99699.41;5095921;28;20233;-68
2021/12/03 07:21:08;;;;;;;10.07;5.20;;;;;;;3.91;nan;99699.16;5095003;28;20170;-69
2021/12/03 07:23:34;;;;;;;12.93;5.43;;;;;;;3.71;nan;99693.84;5096242;28;20244;-69
2021/12/03 07:26:00;;;;;;;8.93;4.93;;;;;;;3.58;nan;99712.00;5095738;28;20547;-68
2021/12/03 07:28:26;;;;;;;6.73;4.23;;;;;;;3.82;nan;99701.34;5096013;28;20550;-69
2021/12/03 07:30:52;;;;;;;9.33;5.50;;;;;;;4.01;nan;99726.00;5094546;28;20421;-67
2021/12/03 07:33:18;;;;;;;7.60;5.13;;;;;;;4.01;nan;99691.69;5094513;28;20636;-68
2021/12/03 07:35:45;;;;;;;12.30;5.53;;;;;;;4.03;nan;99717.09;5094327;28;20212;-68
2021/12/03 07:38:11;;;;;;;12.73;5.63;;;;;;;4.05;nan;99707.31;5095754;28;20274;-69
2021/12/03 07:40:37;;;;;;;12.10;5.47;;;;;;;3.81;nan;99708.41;5077266;28;20712;-69
2021/12/03 07:43:02;;;;;;;8.43;5.37;;;;;;;4.13;nan;99701.72;5094233;28;20170;-69
2021/12/03 07:45:27;;;;;;;11.60;5.53;;;;;;;4.08;nan;99695.75;5077293;28;20194;-68
2021/12/03 07:47:53;;;;;;;9.30;5.27;;;;;;;4.17;nan;99713.00;5094181;28;20694;-68
2021/12/03 07:50:18;;;;;;;11.17;6.10;;;;;;;4.22;nan;99711.88;5095685;28;20181;-69
2021/12/03 07:52:43;;;;;;;9.47;6.00;;;;;;;3.99;nan;99707.59;5095464;28;20220;-68
2021/12/03 07:55:09;;;;;;;11.47;6.50;;;;;;;4.18;nan;99712.06;5094132;28;20178;-69
2021/12/03 07:57:34;;;;;;;9.97;6.27;;;;;;;4.45;nan;99733.72;5094004;28;20232;-69
2021/12/03 07:59:59;;;;;;;9.67;5.80;;;;;;;4.08;nan;99716.88;5094364;28;20271;-68
2021/12/03 08:02:26;;;;;;;11.47;6.57;;;;;;;4.29;nan;99723.00;5095426;28;20223;-69
2021/12/03 08:04:52;;;;;;;10.47;6.50;;;;;;;4.13;nan;99699.06;5095940;28;20262;-68
2021/12/03 08:07:17;;;;;;;13.87;6.80;;;;;;;4.00;nan;99719.88;5096943;28;20259;-69
2021/12/03 08:09:42;;;;;;;11.07;6.97;;;;;;;4.25;nan;99750.50;5096129;28;20171;-69
2021/12/03 08:12:08;;;;;;;9.83;6.93;;;;;;;4.23;nan;99771.69;5094155;28;20185;-69
2021/12/03 08:14:33;;;;;;;12.87;7.13;;;;;;;4.12;nan;99746.69;5095006;28;20597;-70
2021/12/03 08:16:58;;;;;;;11.47;6.60;;;;;;;4.07;nan;99752.13;5094054;28;20189;-69
2021/12/03 08:19:24;;;;;;;13.57;7.43;;;;;;;4.24;nan;99761.97;5093707;28;20688;-69
2021/12/03 08:21:49;;;;;;;13.10;7.80;;;;;;;4.25;nan;99747.84;5093591;28;20631;-68
2021/12/03 08:24:14;;;;;;;16.33;8.00;;;;;;;4.56;nan;99764.06;5094811;28;20204;-69
2021/12/03 08:26:40;;;;;;;14.67;7.80;;;;;;;4.42;nan;99770.88;5094922;28;20237;-69
2021/12/03 08:29:06;;;;;;;10.93;7.70;;;;;;;4.56;nan;99774.63;5093383;28;20198;-69
2021/12/03 08:31:31;;;;;;;11.30;7.40;;;;;;;4.33;nan;99777.41;5093943;28;20550;-69
2021/12/03 08:33:57;;;;;;;15.23;8.83;;;;;;;4.23;nan;99753.19;5095004;28;20257;-71
2021/12/03 08:36:22;;;;;;;10.17;7.47;;;;;;;4.21;nan;99775.31;5095164;28;20609;-70
2021/12/03 08:38:48;;;;;;;12.27;7.93;;;;;;;4.04;nan;99766.34;5094356;28;20190;-70
2021/12/03 08:41:17;;;;;;;12.90;8.50;;;;;;;4.18;nan;99764.91;5095080;28;20188;-68
2021/12/03 08:43:43;;;;;;;15.00;8.37;;;;;;;4.26;nan;99779.47;5094934;28;20189;-70
2021/12/03 08:46:11;;;;;;;15.27;9.10;;;;;;;4.45;nan;99786.56;5093890;28;20228;-69
2021/12/03 08:48:44;;;;;;;13.87;8.40;;;;;;;4.29;nan;99779.34;5094315;28;20426;-69
2021/12/03 08:56:37;;;;;;;20.07;8.80;;;;;;;3.99;nan;99784.16;5094544;28;20165;-69
2021/12/03 08:59:04;;;;;;;19.10;9.83;;;;;;;4.11;nan;99793.34;5094107;28;20289;-70
2021/12/03 09:01:29;;;;;;;12.30;7.87;;;;;;;3.92;nan;99801.19;5092663;28;20184;-70
2021/12/03 09:03:54;;;;;;;15.47;9.23;;;;;;;4.41;nan;99812.28;5092897;28;20182;-68
2021/12/03 09:06:20;;;;;;;19.20;10.50;;;;;;;4.31;nan;99787.19;5094049;28;20199;-70
2021/12/03 09:08:45;;;;;;;20.07;9.30;;;;;;;4.04;nan;99792.72;5092875;28;20342;-69
2021/12/03 09:11:10;;;;;;;15.10;8.83;;;;;;;4.20;nan;99810.59;5094053;28;20181;-70
2021/12/03 09:13:36;;;;;;;12.30;7.73;;;;;;;3.82;nan;99807.78;5093901;28;20185;-69
2021/12/03 09:16:06;;;;;;;14.63;7.87;;;;;;;4.03;nan;99795.44;5092848;28;20554;-69
2021/12/03 09:18:36;;;;;;;14.73;7.13;;;;;;;3.87;nan;99804.94;5092408;28;20186;-68
2021/12/03 09:21:08;;;;;;;12.23;8.30;;;;;;;4.21;nan;99814.94;5093790;28;20159;-68
2021/12/03 09:26:12;;;;;;;11.57;7.83;;;;;;;4.22;nan;99804.31;5094183;28;20492;-69
2021/12/03 09:28:41;;;;;;;13.93;8.37;;;;;;;4.46;nan;99836.75;5092632;28;20221;-69
2021/12/03 09:31:07;;;;;;;14.97;8.20;;;;;;;4.34;nan;99816.97;5094047;28;20192;-69
2021/12/03 09:33:34;;;;;;;13.70;7.67;;;;;;;4.34;nan;99824.91;5092540;28;20174;-69
2021/12/03 09:36:03;;;;;;;15.23;7.80;;;;;;;4.50;nan;99818.97;5092761;28;20543;-69
2021/12/03 09:38:34;;;;;;;14.77;7.93;;;;;;;4.67;nan;99845.50;5075932;28;20548;-69
2021/12/03 09:41:11;;;;;;;14.40;8.40;;;;;;;5.20;nan;99848.38;5075934;28;20212;-69
2021/12/03 09:43:42;;;;;;;13.87;8.27;;;;;;;5.30;nan;99833.78;5093482;28;20158;-69
2021/12/03 09:46:16;;;;;;;14.80;8.03;;;;;;;5.20;nan;99806.03;5092413;28;20204;-70
2021/12/03 09:49:32;;;;;;;15.60;7.83;;;;;;;5.28;nan;99840.94;5091137;28;20552;-68
2021/12/03 09:51:32;;;;;;;13.53;9.03;;;;;;;5.38;nan;99814.03;5089029;28;20196;-68
2021/12/03 09:56:28;;;;;;;11.47;7.67;;;;;;;5.02;nan;99813.03;5092512;28;20262;-68
2021/12/03 10:01:48;;;;;;;13.73;8.70;;;;;;;5.65;nan;99815.34;5094993;28;20165;-70
2021/12/03 10:08:06;;;;;;;11.20;6.33;;;;;;;5.22;nan;99825.34;5094703;28;20215;-69
2021/12/03 10:10:18;;;;;;;11.73;7.30;;;;;;;5.68;nan;99811.69;5092479;28;20174;-69
2021/12/03 10:12:49;;;;;;;17.67;7.70;;;;;;;5.75;nan;99815.75;5092106;28;20261;-70
2021/12/03 10:18:30;;;;;;;12.40;7.37;;;;;;;5.38;nan;99809.59;5092577;28;20232;-69
2021/12/03 10:24:13;;;;;;;10.57;7.10;;;;;;;5.55;nan;99806.13;5071057;28;20174;-69
2021/12/03 10:26:52;;;;;;;12.00;7.20;;;;;;;5.19;nan;99788.41;5090564;28;20210;-69
2021/12/03 10:34:38;;;;;;;17.57;6.67;;;;;;;5.34;nan;99792.16;5091897;28;20632;-69
2021/12/03 10:37:19;;;;;;;9.97;5.87;;;;;;;5.47;nan;99790.63;5091429;28;20223;-69
2021/12/03 10:40:30;;;;;;;13.27;6.13;;;;;;;5.43;nan;99786.41;5092097;28;20155;-69
2021/12/03 10:42:55;;;;;;;8.50;5.30;;;;;;;5.09;nan;99778.34;5089517;28;20186;-70
2021/12/03 10:45:39;;;;;;;13.50;8.33;;;;;;;5.29;nan;99792.38;5092077;28;20174;-70
2021/12/03 10:53:23;;;;;;;10.73;6.30;;;;;;;5.45;nan;99788.97;5093012;28;20182;-69
2021/12/03 10:56:18;;;;;;;11.37;5.83;;;;;;;5.07;nan;99791.66;5091885;28;20155;-69
2021/12/03 10:59:03;;;;;;;8.73;6.10;;;;;;;5.10;nan;99790.66;5092255;28;20202;-69
2021/12/03 11:02:02;;;;;;;10.90;6.37;;;;;;;5.04;nan;99789.16;5095159;28;20177;-69
2021/12/03 11:04:42;;;;;;;13.23;7.47;;;;;;;5.15;nan;99799.22;5095237;28;20178;-69
2021/12/03 11:18:18;;;;;;;13.33;7.80;;;;;;;4.89;nan;99788.09;5096329;28;20198;-70
2021/12/03 11:34:53;;;;;;;12.47;7.13;;;;;;;5.52;nan;99785.94;5095254;28;20172;-68
2021/12/03 11:40:29;;;;;;;15.53;8.10;;;;;;;5.62;nan;99794.31;5094781;28;20201;-69
2021/12/03 12:19:12;;;;;;;24.07;11.13;;;;;;;5.17;nan;99784.13;5115047;28;20258;-68
2021/12/03 12:24:58;;;;;;;22.67;11.20;;;;;;;5.49;nan;99791.41;5115128;28;20241;-68
2021/12/03 12:28:52;;;;;;;21.27;11.50;;;;;;;5.30;nan;99796.72;5116334;28;20182;-68
2021/12/03 12:32:36;;;;;;;23.33;12.37;;;;;;;5.00;nan;99766.44;5114499;28;20173;-68
2021/12/03 12:42:49;;;;;;;23.00;12.63;;;;;;;4.90;nan;99787.16;5114855;28;20157;-67
2021/12/03 12:46:15;;;;;;;21.73;12.33;;;;;;;4.91;nan;99772.16;5115839;28;20193;-68
2021/12/03 13:02:32;;;;;;;22.77;11.40;;;;;;;5.21;nan;99751.34;5115737;28;20268;-67
2021/12/03 13:05:15;;;;;;;20.27;10.73;;;;;;;5.09;nan;99743.97;5114875;28;20192;-68
2021/12/03 13:08:13;;;;;;;23.43;12.00;;;;;;;5.34;nan;99755.09;5115096;28;20210;-69
2021/12/03 13:25:14;;;;;;;20.77;10.97;;;;;;;5.18;nan;99732.94;5114505;28;20260;-68
2021/12/03 13:28:16;;;;;;;20.53;11.07;;;;;;;5.06;nan;99744.13;5114385;28;20178;-69
2021/12/03 13:56:19;;;;;;;23.13;12.13;;;;;;;5.21;nan;99746.91;5113966;28;20196;-67
2021/12/03 14:03:38;;;;;;;20.07;11.17;;;;;;;5.22;nan;99703.66;5118287;28;20619;-68
2021/12/03 14:12:09;;;;;;;17.10;10.23;;;;;;;5.32;nan;99712.84;5115328;28;20164;-68
2021/12/03 14:15:17;;;;;;;19.50;11.27;;;;;;;5.51;nan;99738.38;5114951;28;20654;-68
2021/12/03 14:44:38;;;;;;;15.03;7.00;;;;;;;4.57;nan;99704.97;5119484;28;20265;-68
2021/12/03 14:50:25;;;;;;;13.77;7.67;;;;;;;4.74;nan;99724.47;5118554;28;20161;-70
2021/12/03 14:55:43;;;;;;;18.60;7.67;;;;;;;4.78;nan;99686.41;5119472;28;20207;-68
2021/12/03 14:58:13;;;;;;;16.10;7.20;;;;;;;4.82;nan;99693.25;5117025;28;20201;-68
2021/12/03 15:05:59;;;;;;;14.23;7.10;;;;;;;5.05;nan;99700.94;5117386;28;20192;-68
2021/12/03 15:08:37;;;;;;;13.13;7.43;;;;;;;4.97;nan;99700.47;5100242;28;20257;-68
2021/12/03 15:14:34;;;;;;;15.33;7.40;;;;;;;5.27;nan;99695.50;5116708;28;20257;-68
2021/12/03 15:25:08;;;;;;;14.43;7.53;;;;;;;5.59;nan;99702.69;5120655;28;20165;-68
2021/12/03 15:35:47;;;;;;;19.60;7.57;;;;;;;4.96;nan;99667.03;5108853;28;20294;-68
2021/12/03 15:38:25;;;;;;;12.47;7.10;;;;;;;5.00;nan;99666.78;5117082;28;20272;-68
2021/12/03 15:57:23;;;;;;;14.43;7.50;;;;;;;5.19;nan;99672.03;5116591;28;20164;-69
2021/12/03 16:08:12;;;;;;;13.80;7.03;;;;;;;5.05;nan;99631.34;5116508;28;20205;-68
2021/12/03 16:13:25;;;;;;;14.50;7.73;;;;;;;5.48;nan;99643.25;5116640;28;20166;-68
2021/12/03 16:18:50;;;;;;;14.90;8.23;;;;;;;5.59;nan;99633.88;5116331;28;20196;-70
2021/12/03 16:21:31;;;;;;;15.53;8.00;;;;;;;5.50;nan;99621.06;5117000;28;20157;-68
2021/12/03 16:51:13;;;;;;;13.73;7.07;;;;;;;5.55;nan;99605.81;5115106;28;20174;-67